Station History

Weather Underground - logo

Station Historical Data
Daily Summary for February 14, 2018 Units:  English    Metric   Both
« Previous Day
Next Day »
Daily Weekly Monthly Yearly Custom
  High: Low: Average:
Temperature: 67.1 °F 38.7 °F 51.3 °F
Dew Point: 43.8 °F 33.4 °F 38.5 °F
Humidity: 86 % 33 % 64 %
Wind Speed: 8.1 mph 0.0 mph 0.9 mph
Wind Gust: 8.1 mph - -
Wind:- - SSW
Pressure: 30.20 in 30.08 in -
Precipitation: 0.00 in    
Historical Graphs
 
 
Tabular Data for February 14, 2018
Time Temperature Dew Point Pressure Wind Wind Speed Wind Gust Humidity Rainfall Rate (Hourly)
00:02 46.4 °F 37.5 °F 30.17 in Calm     71 % 0.00 in
00:07 46.0 °F 37.5 °F 30.17 in Calm     72 % 0.00 in
00:12 45.6 °F 37.4 °F 30.17 in Calm     73 % 0.00 in
00:17 45.3 °F 37.5 °F 30.17 in Calm     74 % 0.00 in
00:22 45.0 °F 37.2 °F 30.17 in Calm     74 % 0.00 in
00:27 44.6 °F 37.2 °F 30.17 in Calm     75 % 0.00 in
00:32 44.3 °F 36.9 °F 30.17 in Calm     75 % 0.00 in
00:37 44.1 °F 36.7 °F 30.17 in Calm     75 % 0.00 in
00:42 44.2 °F 36.4 °F 30.17 in Calm     74 % 0.00 in
00:47 44.4 °F 36.6 °F 30.17 in Calm     74 % 0.00 in
00:52 44.1 °F 36.3 °F 30.17 in Calm     74 % 0.00 in
00:57 43.9 °F 36.1 °F 30.17 in Calm     74 % 0.00 in
01:02 43.8 °F 36.0 °F 30.17 in Calm     74 % 0.00 in
01:07 44.0 °F 35.9 °F 30.17 in Calm     73 % 0.00 in
01:13 44.4 °F 35.9 °F 30.16 in Calm     72 % 0.00 in
01:18 44.8 °F 36.0 °F 30.16 in Calm     71 % 0.00 in
01:23 44.9 °F 36.1 °F 30.16 in Calm     71 % 0.00 in
01:28 45.1 °F 35.9 °F 30.16 in Calm     70 % 0.00 in
01:33 44.9 °F 36.1 °F 30.16 in Calm     71 % 0.00 in
01:38 44.8 °F 36.0 °F 30.16 in Calm     71 % 0.00 in
01:43 44.6 °F 35.8 °F 30.16 in Calm     71 % 0.00 in
01:48 44.4 °F 35.6 °F 30.16 in Calm     71 % 0.00 in
01:53 44.2 °F 35.7 °F 30.16 in Calm     72 % 0.00 in
01:58 44.4 °F 35.9 °F 30.16 in Calm     72 % 0.00 in
02:03 43.8 °F 35.7 °F 30.16 in Calm     73 % 0.00 in
02:08 42.7 °F 35.7 °F 30.16 in Calm     76 % 0.00 in
02:13 42.5 °F 35.8 °F 30.16 in Calm     77 % 0.00 in
02:18 42.3 °F 35.9 °F 30.16 in Calm     78 % 0.00 in
02:23 42.0 °F 35.6 °F 30.16 in Calm     78 % 0.00 in
02:28 41.8 °F 35.8 °F 30.16 in Calm     79 % 0.00 in
02:33 41.6 °F 35.6 °F 30.16 in Calm     79 % 0.00 in
02:38 41.6 °F 35.6 °F 30.16 in Calm     79 % 0.00 in
02:43 41.3 °F 35.3 °F 30.16 in Calm     79 % 0.00 in
02:48 41.3 °F 35.3 °F 30.16 in Calm     79 % 0.00 in
02:53 41.3 °F 35.6 °F 30.16 in Calm     80 % 0.00 in
02:58 42.1 °F 35.7 °F 30.16 in Calm     78 % 0.00 in
03:03 42.5 °F 35.5 °F 30.15 in Calm     76 % 0.00 in
03:08 42.7 °F 35.3 °F 30.15 in Calm     75 % 0.00 in
03:13 42.6 °F 35.2 °F 30.15 in Calm     75 % 0.00 in
03:18 42.4 °F 35.0 °F 30.15 in Calm     75 % 0.00 in
03:23 42.3 °F 34.9 °F 30.15 in Calm     75 % 0.00 in
03:28 42.2 °F 34.8 °F 30.15 in Calm     75 % 0.00 in
03:33 42.0 °F 34.6 °F 30.15 in Calm     75 % 0.00 in
03:38 41.8 °F 34.8 °F 30.15 in Calm     76 % 0.00 in
03:43 41.6 °F 34.6 °F 30.15 in Calm     76 % 0.00 in
03:48 41.2 °F 34.5 °F 30.15 in Calm     77 % 0.00 in
03:53 41.1 °F 34.4 °F 30.15 in Calm     77 % 0.00 in
03:58 41.1 °F 34.8 °F 30.14 in Calm     78 % 0.00 in
04:03 41.1 °F 34.4 °F 30.15 in Calm     77 % 0.00 in
04:08 41.2 °F 34.5 °F 30.14 in Calm     77 % 0.00 in
04:13 41.1 °F 34.8 °F 30.14 in Calm     78 % 0.00 in
04:18 40.9 °F 34.6 °F 30.14 in Calm     78 % 0.00 in
04:23 40.7 °F 34.4 °F 30.14 in Calm     78 % 0.00 in
04:28 40.9 °F 34.6 °F 30.14 in Calm     78 % 0.00 in
04:33 41.0 °F 34.7 °F 30.14 in Calm     78 % 0.00 in
04:38 40.9 °F 34.6 °F 30.14 in Calm     78 % 0.00 in
04:43 40.8 °F 34.5 °F 30.14 in Calm     78 % 0.00 in
04:48 40.5 °F 34.5 °F 30.14 in Calm     79 % 0.00 in
04:53 39.7 °F 33.4 °F 30.14 in Calm     78 % 0.00 in
04:58 39.1 °F 33.5 °F 30.13 in Calm     80 % 0.00 in
05:03 38.8 °F 33.5 °F 30.13 in Calm     81 % 0.00 in
05:08 38.7 °F 33.7 °F 30.13 in Calm     82 % 0.00 in
05:13 38.8 °F 34.1 °F 30.13 in Calm     83 % 0.00 in
05:18 39.3 °F 34.3 °F 30.13 in Calm     82 % 0.00 in
05:23 40.0 °F 34.3 °F 30.13 in Calm     80 % 0.00 in
05:28 40.8 °F 34.5 °F 30.13 in Calm     78 % 0.00 in
05:33 41.5 °F 34.5 °F 30.13 in Calm     76 % 0.00 in
05:38 41.8 °F 34.5 °F 30.13 in Calm     75 % 0.00 in
05:43 42.1 °F 34.7 °F 30.14 in Calm     75 % 0.00 in
05:48 42.1 °F 35.4 °F 30.14 in Calm     77 % 0.00 in
05:53 41.7 °F 35.0 °F 30.14 in Calm     77 % 0.00 in
05:58 41.2 °F 35.2 °F 30.14 in Calm     79 % 0.00 in
06:03 40.7 °F 35.0 °F 30.14 in Calm     80 % 0.00 in
06:08 40.6 °F 35.2 °F 30.14 in Calm     81 % 0.00 in
06:14 40.8 °F 35.4 °F 30.15 in Calm     81 % 0.00 in
06:19 40.8 °F 35.7 °F 30.15 in Calm     82 % 0.00 in
06:24 40.8 °F 35.4 °F 30.15 in Calm     81 % 0.00 in
06:29 40.8 °F 35.7 °F 30.15 in Calm     82 % 0.00 in
06:34 40.7 °F 35.9 °F 30.15 in Calm     83 % 0.00 in
06:39 40.5 °F 36.0 °F 30.16 in Calm     84 % 0.00 in
06:44 40.4 °F 36.2 °F 30.16 in Calm     85 % 0.00 in
06:49 40.5 °F 36.0 °F 30.16 in Calm     84 % 0.00 in
06:54 40.7 °F 36.5 °F 30.16 in Calm     85 % 0.00 in
06:59 40.6 °F 36.4 °F 30.16 in Calm     85 % 0.00 in
07:04 40.6 °F 36.7 °F 30.16 in Calm     86 % 0.00 in
07:09 40.7 °F 36.8 °F 30.16 in Calm     86 % 0.00 in
07:14 40.9 °F 36.7 °F 30.16 in Calm     85 % 0.00 in
07:19 41.2 °F 37.0 °F 30.16 in Calm     85 % 0.00 in
07:24 41.5 °F 37.0 °F 30.16 in Calm     84 % 0.00 in
07:29 41.8 °F 37.0 °F 30.17 in Calm     83 % 0.00 in
07:34 42.1 °F 37.3 °F 30.17 in Calm     83 % 0.00 in
07:39 42.3 °F 37.5 °F 30.17 in Calm     83 % 0.00 in
07:44 42.6 °F 37.5 °F 30.17 in Calm     82 % 0.00 in
07:49 42.9 °F 37.8 °F 30.18 in Calm     82 % 0.00 in
07:54 43.1 °F 38.0 °F 30.18 in Calm     82 % 0.00 in
07:59 43.4 °F 38.3 °F 30.18 in Calm     82 % 0.00 in
08:04 43.7 °F 38.9 °F 30.18 in Calm     83 % 0.00 in
08:09 44.0 °F 39.2 °F 30.19 in Calm     83 % 0.00 in
08:14 44.3 °F 39.2 °F 30.19 in Calm     82 % 0.00 in
08:19 44.5 °F 39.3 °F 30.19 in Calm     82 % 0.00 in
08:24 44.9 °F 39.7 °F 30.19 in Calm     82 % 0.00 in
08:29 45.4 °F 39.9 °F 30.19 in Calm     81 % 0.00 in
08:34 46.0 °F 40.2 °F 30.19 in Calm     80 % 0.00 in
08:39 46.7 °F 39.9 °F 30.19 in Calm     77 % 0.00 in
08:44 47.6 °F 39.7 °F 30.20 in SSE 2.3 mph 2.3 mph 74 % 0.00 in
08:49 48.5 °F 39.9 °F 30.20 in SE 3.5 mph 3.5 mph 72 % 0.00 in
08:54 49.3 °F 40.3 °F 30.20 in South 3.5 mph 3.5 mph 71 % 0.00 in
08:59 50.1 °F 40.7 °F 30.20 in SSW 6.0 mph 6.0 mph 70 % 0.00 in
09:04 50.6 °F 40.8 °F 30.20 in SSW 2.3 mph 2.3 mph 69 % 0.00 in
09:09 51.1 °F 40.9 °F 30.20 in SE 3.5 mph 3.5 mph 68 % 0.00 in
09:14 51.5 °F 40.5 °F 30.20 in SSW 5.0 mph 5.0 mph 66 % 0.00 in
09:19 52.0 °F 40.6 °F 30.20 in SSE 2.3 mph 2.3 mph 65 % 0.00 in
09:24 52.5 °F 40.7 °F 30.20 in SSE 3.5 mph 3.5 mph 64 % 0.00 in
09:29 53.0 °F 41.5 °F 30.20 in SE 1.2 mph   65 % 0.00 in
09:34 53.5 °F 41.2 °F 30.20 in SSE 3.5 mph 3.5 mph 63 % 0.00 in
09:39 53.7 °F 41.0 °F 30.20 in SSE 2.3 mph 2.3 mph 62 % 0.00 in
09:44 54.0 °F 41.3 °F 30.20 in SSE 2.3 mph   62 % 0.00 in
09:49 54.9 °F 41.3 °F 30.20 in SSW 2.3 mph 2.3 mph 60 % 0.00 in
09:54 55.4 °F 40.9 °F 30.19 in ESE 3.5 mph 3.5 mph 58 % 0.00 in
09:59 56.0 °F 41.0 °F 30.19 in SE 8.0 mph 8.0 mph 57 % 0.00 in
10:04 56.1 °F 41.1 °F 30.19 in SE 4.6 mph 4.6 mph 57 % 0.00 in
10:09 56.1 °F 40.6 °F 30.19 in SSE 4.6 mph 4.6 mph 56 % 0.00 in
10:14 55.9 °F 40.9 °F 30.20 in SE 4.0 mph 4.0 mph 57 % 0.00 in
10:19 55.7 °F 41.1 °F 30.20 in South 1.2 mph 1.2 mph 58 % 0.00 in
10:24 55.8 °F 41.7 °F 30.20 in ENE 4.6 mph 4.6 mph 59 % 0.00 in
10:29 56.4 °F 41.8 °F 30.19 in ESE 5.8 mph 5.8 mph 58 % 0.00 in
10:34 57.5 °F 43.3 °F 30.19 in SSE 2.3 mph 2.3 mph 59 % 0.00 in
10:39 58.4 °F 42.3 °F 30.19 in ENE 5.8 mph 5.8 mph 55 % 0.00 in
10:44 59.3 °F 42.2 °F 30.19 in South 6.9 mph 6.9 mph 53 % 0.00 in
10:49 60.1 °F 43.4 °F 30.18 in South 4.6 mph 4.6 mph 54 % 0.00 in
10:54 60.7 °F 41.9 °F 30.18 in SE 3.5 mph 3.5 mph 50 % 0.00 in
10:59 61.4 °F 41.5 °F 30.18 in SSE 4.6 mph 4.6 mph 48 % 0.00 in
11:04 61.8 °F 41.3 °F 30.18 in ESE 5.8 mph 5.8 mph 47 % 0.00 in
11:09 62.2 °F 41.2 °F 30.18 in SE 4.6 mph 4.6 mph 46 % 0.00 in
11:14 62.5 °F 42.0 °F 30.17 in South 4.6 mph 4.6 mph 47 % 0.00 in
11:19 63.0 °F 42.4 °F 30.17 in SSE 4.6 mph 4.6 mph 47 % 0.00 in
11:24 63.3 °F 42.2 °F 30.17 in SSE 3.5 mph 3.5 mph 46 % 0.00 in
11:29 63.2 °F 40.9 °F 30.17 in South 8.1 mph 8.1 mph 44 % 0.00 in
11:34 63.1 °F 41.4 °F 30.17 in ESE 5.8 mph 5.8 mph 45 % 0.00 in
11:39 63.3 °F 41.6 °F 30.17 in South 5.8 mph 5.8 mph 45 % 0.00 in
11:44 63.9 °F 41.0 °F 30.16 in SW 6.9 mph 6.9 mph 43 % 0.00 in
11:49 64.1 °F 40.5 °F 30.16 in SSE 6.9 mph 6.9 mph 42 % 0.00 in
11:54 64.6 °F 41.0 °F 30.16 in SSW 3.5 mph 3.5 mph 42 % 0.00 in
11:59 64.9 °F 40.6 °F 30.16 in SSE 5.0 mph 5.0 mph 41 % 0.00 in
12:04 64.9 °F 40.0 °F 30.15 in SSE 3.5 mph 3.5 mph 40 % 0.00 in
12:09 64.8 °F 39.9 °F 30.15 in SSE 3.5 mph 3.5 mph 40 % 0.00 in
12:14 65.1 °F 40.8 °F 30.15 in WSW 3.5 mph 3.5 mph 41 % 0.00 in
12:19 65.5 °F 40.5 °F 30.15 in South 2.3 mph 2.3 mph 40 % 0.00 in
12:24 65.6 °F 40.0 °F 30.14 in SSE 3.5 mph 3.5 mph 39 % 0.00 in
12:29 65.8 °F 40.8 °F 30.14 in ESE 5.8 mph   40 % 0.00 in
12:34 65.9 °F 40.9 °F 30.14 in WSW 3.5 mph 3.5 mph 40 % 0.00 in
12:39 65.8 °F 40.8 °F 30.14 in SSE 2.3 mph 2.3 mph 40 % 0.00 in
12:44 65.6 °F 40.6 °F 30.14 in SSE 1.0 mph 1.3 mph 40 % 0.00 in
12:49 65.6 °F 40.6 °F 30.14 in SW 1.2 mph   40 % 0.00 in
12:55 65.1 °F 40.8 °F 30.13 in NNW 3.5 mph 3.5 mph 41 % 0.00 in
13:00 64.8 °F 41.2 °F 30.13 in SSE 2.3 mph 2.3 mph 42 % 0.00 in
13:05 65.0 °F 41.3 °F 30.13 in SSE 3.5 mph 3.5 mph 42 % 0.00 in
13:10 65.2 °F 40.9 °F 30.13 in South 3.5 mph 3.5 mph 41 % 0.00 in
13:15 65.2 °F 42.7 °F 30.13 in South 2.3 mph 2.3 mph 44 % 0.00 in
13:20 65.1 °F 42.6 °F 30.12 in SSW 2.3 mph 2.3 mph 44 % 0.00 in
13:25 65.1 °F 42.6 °F 30.12 in NNW 2.0 mph 2.0 mph 44 % 0.00 in
13:30 65.2 °F 42.7 °F 30.12 in South 1.2 mph   44 % 0.00 in
13:35 65.6 °F 43.1 °F 30.12 in Calm     44 % 0.00 in
13:40 65.8 °F 42.7 °F 30.12 in NNW 2.0 mph 2.0 mph 43 % 0.00 in
13:45 65.5 °F 41.8 °F 30.11 in WNW 2.3 mph 2.3 mph 42 % 0.00 in
13:50 65.7 °F 43.8 °F 30.11 in Calm     45 % 0.00 in
13:55 65.7 °F 40.7 °F 30.11 in NNW 1.2 mph   40 % 0.00 in
14:00 65.6 °F 40.0 °F 30.11 in NW 2.3 mph 2.3 mph 39 % 0.00 in
14:05 65.3 °F 39.7 °F 30.11 in Calm     39 % 0.00 in
14:10 65.4 °F 39.8 °F 30.11 in SSE 1.2 mph 1.2 mph 39 % 0.00 in
14:15 65.6 °F 39.3 °F 30.10 in Calm     38 % 0.00 in
14:20 66.4 °F 40.0 °F 30.10 in SW 1.2 mph 1.2 mph 38 % 0.00 in
14:25 66.8 °F 38.3 °F 30.10 in NW 1.2 mph   35 % 0.00 in
14:30 67.1 °F 40.6 °F 30.10 in NW 2.0 mph 2.0 mph 38 % 0.00 in
14:35 66.9 °F 39.8 °F 30.10 in NNW 1.2 mph 1.2 mph 37 % 0.00 in
14:40 66.6 °F 39.5 °F 30.10 in NW 2.3 mph   37 % 0.00 in
14:45 66.0 °F 39.7 °F 30.10 in NW 1.2 mph 1.2 mph 38 % 0.00 in
14:50 66.1 °F 39.7 °F 30.10 in WNW 2.3 mph 2.3 mph 38 % 0.00 in
14:55 66.2 °F 39.1 °F 30.10 in NW 1.2 mph 1.2 mph 37 % 0.00 in
15:00 66.0 °F 39.0 °F 30.10 in West 1.2 mph   37 % 0.00 in
15:05 66.4 °F 38.6 °F 30.10 in NW 3.5 mph 3.5 mph 36 % 0.00 in
15:10 66.0 °F 36.1 °F 30.10 in NW 1.2 mph 1.2 mph 33 % 0.00 in
15:15 65.9 °F 37.5 °F 30.09 in NW 2.3 mph 2.3 mph 35 % 0.00 in
15:20 65.6 °F 37.9 °F 30.09 in West 1.2 mph 1.2 mph 36 % 0.00 in
15:25 65.5 °F 37.1 °F 30.09 in ESE 1.2 mph   35 % 0.00 in
15:30 65.5 °F 38.5 °F 30.09 in WNW 2.0 mph 2.0 mph 37 % 0.00 in
15:35 65.4 °F 39.8 °F 30.09 in NW 1.2 mph 1.2 mph 39 % 0.00 in
15:40 65.1 °F 39.5 °F 30.09 in Calm     39 % 0.00 in
15:45 65.1 °F 39.5 °F 30.08 in SE 1.2 mph   39 % 0.00 in
15:50 65.0 °F 39.4 °F 30.08 in Calm     39 % 0.00 in
15:55 64.9 °F 38.7 °F 30.08 in NNW 1.2 mph 1.2 mph 38 % 0.00 in
16:00 65.0 °F 38.1 °F 30.08 in NNW 1.2 mph 1.2 mph 37 % 0.00 in
16:05 65.0 °F 38.1 °F 30.08 in Calm     37 % 0.00 in
16:10 64.9 °F 38.0 °F 30.08 in NNW 1.2 mph 1.2 mph 37 % 0.00 in
16:15 64.9 °F 38.7 °F 30.08 in West 1.2 mph 1.2 mph 38 % 0.00 in
16:20 64.7 °F 37.8 °F 30.08 in Calm     37 % 0.00 in
16:25 64.6 °F 39.1 °F 30.08 in Calm     39 % 0.00 in
16:30 64.5 °F 38.3 °F 30.08 in Calm     38 % 0.00 in
16:35 64.4 °F 37.5 °F 30.08 in NW 1.2 mph   37 % 0.00 in
16:40 64.3 °F 38.1 °F 30.08 in NW 1.2 mph 1.2 mph 38 % 0.00 in
16:45 64.2 °F 37.4 °F 30.08 in Calm     37 % 0.00 in
16:50 64.0 °F 39.2 °F 30.08 in NW 1.2 mph 1.2 mph 40 % 0.00 in
16:55 63.8 °F 39.0 °F 30.08 in Calm     40 % 0.00 in
17:00 63.6 °F 39.5 °F 30.08 in Calm     41 % 0.00 in
17:05 63.2 °F 39.1 °F 30.08 in Calm     41 % 0.00 in
17:10 62.8 °F 39.4 °F 30.08 in Calm     42 % 0.00 in
17:15 62.4 °F 39.6 °F 30.08 in Calm     43 % 0.00 in
17:20 61.9 °F 39.7 °F 30.08 in Calm     44 % 0.00 in
17:25 61.4 °F 39.3 °F 30.08 in Calm     44 % 0.00 in
17:30 60.9 °F 39.4 °F 30.08 in Calm     45 % 0.00 in
17:35 60.3 °F 39.4 °F 30.08 in Calm     46 % 0.00 in
17:40 59.5 °F 39.2 °F 30.08 in Calm     47 % 0.00 in
17:45 58.8 °F 40.2 °F 30.08 in Calm     50 % 0.00 in
17:50 58.1 °F 39.5 °F 30.08 in Calm     50 % 0.00 in
17:55 57.4 °F 40.9 °F 30.08 in Calm     54 % 0.00 in
18:00 56.9 °F 39.9 °F 30.08 in Calm     53 % 0.00 in
18:05 56.2 °F 40.2 °F 30.08 in Calm     55 % 0.00 in
18:10 55.7 °F 40.2 °F 30.08 in Calm     56 % 0.00 in
18:15 55.3 °F 40.8 °F 30.08 in Calm     58 % 0.00 in
18:20 54.9 °F 41.7 °F 30.08 in Calm     61 % 0.00 in
18:25 54.4 °F 41.2 °F 30.08 in Calm     61 % 0.00 in
18:30 54.0 °F 40.8 °F 30.08 in Calm     61 % 0.00 in
18:35 53.6 °F 41.7 °F 30.08 in Calm     64 % 0.00 in
18:40 53.2 °F 41.3 °F 30.08 in Calm     64 % 0.00 in
18:45 53.0 °F 41.5 °F 30.08 in Calm     65 % 0.00 in
18:50 52.7 °F 41.7 °F 30.08 in Calm     66 % 0.00 in
18:55 52.4 °F 41.8 °F 30.08 in Calm     67 % 0.00 in
19:00 52.0 °F 41.8 °F 30.08 in Calm     68 % 0.00 in
19:05 51.8 °F 41.6 °F 30.08 in Calm     68 % 0.00 in
19:10 51.7 °F 40.7 °F 30.09 in Calm     66 % 0.00 in
19:15 51.5 °F 40.5 °F 30.09 in Calm     66 % 0.00 in
19:20 51.6 °F 40.2 °F 30.08 in Calm     65 % 0.00 in
19:25 51.8 °F 40.4 °F 30.08 in Calm     65 % 0.00 in
19:30 51.8 °F 40.0 °F 30.08 in Calm     64 % 0.00 in
19:35 51.6 °F 40.2 °F 30.09 in Calm     65 % 0.00 in
19:40 51.1 °F 39.7 °F 30.09 in Calm     65 % 0.00 in
19:45 51.0 °F 40.0 °F 30.09 in Calm     66 % 0.00 in
19:50 51.4 °F 40.0 °F 30.09 in Calm     65 % 0.00 in
19:55 51.6 °F 40.2 °F 30.09 in Calm     65 % 0.00 in
20:00 50.9 °F 40.3 °F 30.09 in Calm     67 % 0.00 in
20:05 50.4 °F 39.9 °F 30.09 in Calm     67 % 0.00 in
20:10 50.3 °F 39.4 °F 30.09 in Calm     66 % 0.00 in
20:15 50.0 °F 40.2 °F 30.10 in Calm     69 % 0.00 in
20:20 49.5 °F 40.1 °F 30.10 in Calm     70 % 0.00 in
20:25 49.1 °F 40.1 °F 30.10 in Calm     71 % 0.00 in
20:30 48.6 °F 40.0 °F 30.10 in Calm     72 % 0.00 in
20:35 48.3 °F 40.0 °F 30.10 in Calm     73 % 0.00 in
20:40 48.3 °F 39.7 °F 30.10 in Calm     72 % 0.00 in
20:45 48.2 °F 39.9 °F 30.10 in Calm     73 % 0.00 in
20:50 47.8 °F 39.6 °F 30.11 in Calm     73 % 0.00 in
20:55 47.4 °F 39.5 °F 30.11 in Calm     74 % 0.00 in
21:00 47.0 °F 39.1 °F 30.11 in Calm     74 % 0.00 in
21:05 46.7 °F 39.2 °F 30.11 in Calm     75 % 0.00 in
21:10 46.3 °F 39.1 °F 30.12 in Calm     76 % 0.00 in
21:15 46.4 °F 39.6 °F 30.12 in Calm     77 % 0.00 in
21:20 46.4 °F 39.2 °F 30.12 in Calm     76 % 0.00 in
21:25 46.1 °F 39.0 °F 30.12 in Calm     76 % 0.00 in
21:30 45.9 °F 39.1 °F 30.12 in Calm     77 % 0.00 in
21:35 45.8 °F 39.0 °F 30.12 in Calm     77 % 0.00 in
21:40 45.7 °F 38.9 °F 30.13 in Calm     77 % 0.00 in
21:45 45.3 °F 38.5 °F 30.13 in Calm     77 % 0.00 in
21:51 45.3 °F 38.5 °F 30.13 in Calm     77 % 0.00 in
21:56 45.1 °F 38.3 °F 30.13 in Calm     77 % 0.00 in
22:01 45.0 °F 38.6 °F 30.13 in Calm     78 % 0.00 in
22:06 44.7 °F 38.3 °F 30.13 in Calm     78 % 0.00 in
22:11 44.4 °F 38.0 °F 30.14 in Calm     78 % 0.00 in
22:16 44.0 °F 38.2 °F 30.14 in Calm     80 % 0.00 in
22:21 43.9 °F 38.1 °F 30.14 in Calm     80 % 0.00 in
22:26 43.7 °F 37.9 °F 30.14 in Calm     80 % 0.00 in
22:31 43.5 °F 38.1 °F 30.14 in Calm     81 % 0.00 in
22:36 43.3 °F 38.2 °F 30.14 in Calm     82 % 0.00 in
22:41 43.2 °F 38.1 °F 30.14 in Calm     82 % 0.00 in
22:46 43.1 °F 38.0 °F 30.14 in Calm     82 % 0.00 in
22:51 42.8 °F 37.7 °F 30.14 in Calm     82 % 0.00 in
22:56 42.5 °F 37.4 °F 30.15 in Calm     82 % 0.00 in
23:01 42.3 °F 37.5 °F 30.15 in Calm     83 % 0.00 in
23:06 42.1 °F 37.3 °F 30.15 in Calm     83 % 0.00 in
23:11 41.8 °F 37.0 °F 30.15 in Calm     83 % 0.00 in
23:16 41.6 °F 37.1 °F 30.15 in Calm     84 % 0.00 in
23:21 41.6 °F 37.1 °F 30.15 in Calm     84 % 0.00 in
23:26 41.8 °F 37.6 °F 30.15 in Calm     85 % 0.00 in
23:31 41.7 °F 37.2 °F 30.15 in Calm     84 % 0.00 in
23:36 41.9 °F 37.1 °F 30.15 in Calm     83 % 0.00 in
23:41 41.9 °F 36.8 °F 30.15 in Calm     82 % 0.00 in
23:46 41.9 °F 36.5 °F 30.15 in Calm     81 % 0.00 in
23:51 41.5 °F 36.1 °F 30.15 in Calm     81 % 0.00 in
23:56 41.4 °F 36.3 °F 30.15 in Calm     82 % 0.00 in
Park Place, Exeter, Tulare County, California, USA
Compliments of Weather Underground - 2.75 mb